Arman', Russia
Current Conditions -  °F | °C
As of 10:00 AM on Friday 19 Dec 2014 (Local Time) from UHMM Reporting Station
Few Clouds Few Clouds  
Wind Chill: -31°   Ceiling: Unl
Heat Index: -31°   Visibility: 6mi
Dew Point: -38°   Wind: 0mph
Humidity: 68%   Direction: NA
Pressure: 29.85"   Gusts: NA
Location:  59.7°N, 150.17°E
Report Text: UHMM 182300Z 00000MPS 9999 FEW200 M35/M39 Q1011 NOSIG RMKQFE743 88920550
Loading
Personal Weather Stations






























Interactive Weather Map New forecast layout! Learn more

10-Day Weather Forecast

Advertisements
Track Severe Weather on mobile